Time;durP1;ratioP1;P1;durP2;ratioP2;P2;SDS_P1;SDS_P2;PMS_P1;PMS_P2;Temp;Humidity;BMP_temperature;BMP_pressure;BME280_temperature;BME280_humidity;BME280_pressure;Samples;Min_cycle;Max_cycle;Signal;HPM_P1;HPM_P2
2021/11/03 00:01:59;;;;;;;6.70;5.40;;;9.00;99.90;;;;;;5054718;28;20033;-62
2021/11/03 00:04:24;;;;;;;6.50;5.55;;;8.90;99.90;;;;;;5054152;28;20404;-64
2021/11/03 00:06:50;;;;;;;5.93;5.32;;;9.00;99.90;;;;;;5054433;28;20036;-63
2021/11/03 00:09:16;;;;;;;6.40;5.63;;;8.90;99.90;;;;;;5055122;28;20037;-62
2021/11/03 00:11:41;;;;;;;7.45;5.95;;;8.90;99.90;;;;;;5052978;28;20106;-62
2021/11/03 00:14:07;;;;;;;6.00;5.35;;;8.80;99.90;;;;;;5054480;28;20067;-63
2021/11/03 00:16:33;;;;;;;6.00;5.03;;;8.80;99.90;;;;;;5053725;28;20056;-62
2021/11/03 00:18:58;;;;;;;5.93;5.43;;;8.80;99.90;;;;;;5054642;28;20107;-63
2021/11/03 00:21:24;;;;;;;6.35;5.30;;;8.90;99.90;;;;;;5053954;28;20029;-63
2021/11/03 00:23:50;;;;;;;7.30;5.82;;;8.90;99.90;;;;;;5054320;28;20040;-61
2021/11/03 00:26:16;;;;;;;6.55;5.95;;;8.80;99.90;;;;;;5054824;28;20504;-62
2021/11/03 00:28:41;;;;;;;7.60;5.53;;;8.80;99.90;;;;;;5054577;28;20044;-62
2021/11/03 00:31:07;;;;;;;6.18;5.57;;;8.90;99.90;;;;;;5069409;28;20074;-63
2021/11/03 00:33:33;;;;;;;6.93;5.60;;;8.80;99.90;;;;;;5054229;28;20044;-63
2021/11/03 00:36:00;;;;;;;7.70;5.68;;;8.80;99.90;;;;;;5054373;28;20498;-62
2021/11/03 00:38:25;;;;;;;6.38;5.75;;;8.80;99.90;;;;;;5054452;28;20116;-62
2021/11/03 00:40:52;;;;;;;8.00;6.40;;;8.70;99.90;;;;;;5052604;28;20120;-62
2021/11/03 00:43:18;;;;;;;6.55;5.60;;;8.70;99.90;;;;;;5074227;28;20032;-63
2021/11/03 00:45:45;;;;;;;8.05;5.97;;;8.70;99.90;;;;;;5073839;28;20025;-63
2021/11/03 00:48:11;;;;;;;7.13;5.60;;;8.60;99.90;;;;;;5054296;28;20461;-63
2021/11/03 00:50:38;;;;;;;6.25;5.63;;;8.60;99.90;;;;;;5051619;28;20068;-63
2021/11/03 00:53:04;;;;;;;6.88;5.60;;;8.50;99.90;;;;;;5054328;28;20767;-63
2021/11/03 00:55:30;;;;;;;7.20;6.32;;;8.50;99.90;;;;;;5053088;28;20029;-63
2021/11/03 00:57:56;;;;;;;8.57;5.70;;;8.40;99.90;;;;;;5053821;28;20123;-62
2021/11/03 01:00:22;;;;;;;6.28;5.68;;;8.40;99.90;;;;;;5052196;28;20128;-62
2021/11/03 01:02:49;;;;;;;6.63;5.75;;;8.40;99.90;;;;;;5053550;28;20056;-63
2021/11/03 01:05:17;;;;;;;7.45;5.78;;;8.60;99.90;;;;;;5052462;28;20044;-63
2021/11/03 01:07:42;;;;;;;6.88;6.13;;;8.60;99.90;;;;;;5053132;28;20464;-62
2021/11/03 01:10:10;;;;;;;6.43;5.82;;;8.60;99.90;;;;;;5052900;28;20116;-64
2021/11/03 01:12:36;;;;;;;6.43;5.72;;;8.60;99.90;;;;;;5053032;28;20044;-63
2021/11/03 01:15:03;;;;;;;8.27;5.78;;;8.60;99.90;;;;;;5054079;28;20043;-62
2021/11/03 01:17:29;;;;;;;7.50;6.65;;;8.60;99.90;;;;;;5053304;28;20450;-63
2021/11/03 01:19:54;;;;;;;7.25;6.38;;;8.50;99.90;;;;;;5051242;28;20033;-63
2021/11/03 01:22:20;;;;;;;7.35;6.55;;;8.50;99.90;;;;;;5053274;28;20033;-62
2021/11/03 01:24:45;;;;;;;7.43;6.72;;;8.60;99.90;;;;;;5052995;28;20037;-62
2021/11/03 01:27:11;;;;;;;8.30;7.20;;;8.60;99.90;;;;;;5052315;28;20485;-61
2021/11/03 01:29:36;;;;;;;8.63;6.63;;;8.50;99.90;;;;;;5052263;28;20033;-62
2021/11/03 01:32:02;;;;;;;7.20;6.50;;;8.50;99.90;;;;;;5053331;28;20033;-62
2021/11/03 01:34:28;;;;;;;8.38;6.88;;;8.50;99.90;;;;;;5052764;28;20134;-62
2021/11/03 01:36:53;;;;;;;8.50;7.13;;;8.60;99.90;;;;;;5052484;28;20040;-62
2021/11/03 01:39:19;;;;;;;8.20;7.40;;;8.50;99.90;;;;;;5052755;28;20499;-61
2021/11/03 01:41:44;;;;;;;8.60;7.60;;;8.50;99.90;;;;;;5052465;28;20040;-62
2021/11/03 01:44:14;;;;;;;8.35;7.40;;;8.50;99.90;;;;;;5052666;28;20037;-63
2021/11/03 01:46:44;;;;;;;8.75;7.50;;;8.40;99.90;;;;;;5052434;28;20124;-63
2021/11/03 01:49:17;;;;;;;8.75;7.85;;;8.50;99.90;;;;;;5052042;28;20039;-62
2021/11/03 01:51:45;;;;;;;8.00;7.20;;;8.50;99.90;;;;;;5052818;28;20546;-65
2021/11/03 01:54:16;;;;;;;10.45;8.73;;;8.60;99.90;;;;;;5067973;28;20504;-63
2021/11/03 01:56:42;;;;;;;8.75;7.60;;;8.60;99.90;;;;;;5052688;28;20029;-63
2021/11/03 01:59:25;;;;;;;26.70;17.10;;;8.70;99.90;;;;;;5051958;28;20086;-63
2021/11/03 02:01:51;;;;;;;18.52;12.60;;;8.70;99.90;;;;;;5052154;28;20029;-62
2021/11/03 02:04:18;;;;;;;22.27;13.82;;;8.70;99.90;;;;;;5052972;28;20587;-63
2021/11/03 02:06:44;;;;;;;8.43;7.53;;;8.70;99.90;;;;;;5052263;28;20033;-62
2021/11/03 02:09:10;;;;;;;8.02;6.88;;;8.80;99.90;;;;;;5052767;28;20041;-62
2021/11/03 02:11:36;;;;;;;6.97;6.28;;;8.70;99.90;;;;;;5052950;28;20488;-62
2021/11/03 02:14:04;;;;;;;7.00;6.20;;;8.70;99.90;;;;;;5053307;28;20063;-63
2021/11/03 02:16:32;;;;;;;7.18;6.40;;;8.80;99.90;;;;;;5052029;28;20535;-62
2021/11/03 02:18:58;;;;;;;8.18;6.20;;;8.80;99.90;;;;;;5052271;28;20029;-62
2021/11/03 02:21:37;;;;;;;8.18;5.97;;;8.90;99.90;;;;;;5051919;28;20385;-63
2021/11/03 02:24:12;;;;;;;6.47;5.72;;;8.80;99.90;;;;;;5052007;28;20025;-64
2021/11/03 02:26:42;;;;;;;6.63;5.93;;;8.80;99.90;;;;;;5052823;28;20099;-63
2021/11/03 02:29:14;;;;;;;6.40;5.35;;;8.80;99.90;;;;;;5052387;28;20415;-63
2021/11/03 02:31:46;;;;;;;6.40;4.95;;;8.80;99.90;;;;;;5052324;28;20044;-63
2021/11/03 02:34:27;;;;;;;5.45;4.75;;;8.80;99.90;;;;;;5053246;28;20120;-63
2021/11/03 02:37:21;;;;;;;10.90;4.80;;;8.80;99.90;;;;;;5051963;28;20060;-62
2021/11/03 02:39:53;;;;;;;5.03;4.53;;;8.80;99.90;;;;;;5049178;28;20658;-64
2021/11/03 02:42:19;;;;;;;5.47;4.20;;;8.70;99.90;;;;;;5051565;28;20393;-62
2021/11/03 02:44:47;;;;;;;4.50;3.85;;;8.60;99.90;;;;;;5068441;28;20044;-62
2021/11/03 02:47:13;;;;;;;5.43;4.68;;;8.70;99.90;;;;;;5051996;28;20037;-63
2021/11/03 02:49:40;;;;;;;5.15;4.35;;;8.70;99.90;;;;;;5051440;28;20047;-62
2021/11/03 02:52:17;;;;;;;4.70;3.95;;;8.70;99.90;;;;;;5051624;28;20041;-63
2021/11/03 02:54:43;;;;;;;4.95;3.95;;;8.70;99.90;;;;;;5051031;28;20079;-63
2021/11/03 02:57:09;;;;;;;4.25;3.75;;;8.70;99.90;;;;;;5051614;28;20039;-62
2021/11/03 02:59:35;;;;;;;5.22;3.58;;;8.70;99.90;;;;;;5054361;28;20112;-62
2021/11/03 03:02:02;;;;;;;5.20;3.90;;;8.70;99.90;;;;;;5055236;28;20040;-63
2021/11/03 03:04:35;;;;;;;5.85;4.28;;;8.80;99.90;;;;;;5056016;28;20097;-62
2021/11/03 03:07:01;;;;;;;4.03;3.60;;;8.90;99.90;;;;;;5055624;28;20033;-62
2021/11/03 03:09:27;;;;;;;4.88;4.38;;;8.90;99.90;;;;;;5055805;28;20033;-64
2021/11/03 03:11:56;;;;;;;4.20;3.80;;;8.90;99.90;;;;;;5054993;28;20460;-64
2021/11/03 03:14:25;;;;;;;4.25;3.83;;;8.80;99.90;;;;;;5054119;28;20040;-63
2021/11/03 03:16:51;;;;;;;4.32;3.92;;;8.80;99.90;;;;;;5054311;28;20037;-63
2021/11/03 03:19:17;;;;;;;5.10;4.32;;;8.80;99.90;;;;;;5054747;28;20086;-64
2021/11/03 03:21:44;;;;;;;6.03;3.97;;;8.80;99.90;;;;;;5043237;28;20037;-63
2021/11/03 03:24:10;;;;;;;5.00;3.90;;;8.90;99.90;;;;;;5034010;28;20473;-64
2021/11/03 03:26:38;;;;;;;5.35;4.72;;;8.80;99.90;;;;;;5035237;28;20508;-61
2021/11/03 03:29:05;;;;;;;4.85;4.32;;;8.90;99.90;;;;;;5035519;28;20099;-62
2021/11/03 03:31:31;;;;;;;4.40;4.00;;;8.80;99.90;;;;;;5035551;28;20436;-62
2021/11/03 03:33:59;;;;;;;4.97;4.47;;;8.80;99.90;;;;;;5035318;28;20037;-62
2021/11/03 03:36:26;;;;;;;4.90;3.97;;;8.80;99.90;;;;;;5035267;28;20075;-63
2021/11/03 03:38:52;;;;;;;5.00;4.00;;;8.80;99.90;;;;;;5034157;28;20095;-62
2021/11/03 03:41:18;;;;;;;5.25;4.53;;;8.90;99.90;;;;;;5034878;28;20033;-61
2021/11/03 03:43:44;;;;;;;4.53;4.00;;;8.90;99.90;;;;;;5034294;28;20033;-62
2021/11/03 03:46:11;;;;;;;4.35;3.92;;;8.90;99.90;;;;;;5035452;28;20045;-61
2021/11/03 03:48:37;;;;;;;5.18;3.88;;;8.90;99.90;;;;;;5034728;28;20033;-62
2021/11/03 03:51:03;;;;;;;4.30;3.88;;;8.90;99.90;;;;;;5034090;28;20041;-60
2021/11/03 03:53:28;;;;;;;4.38;3.90;;;8.80;99.90;;;;;;5034421;28;20048;-62
2021/11/03 03:55:54;;;;;;;5.07;3.78;;;8.80;99.90;;;;;;5047044;28;20796;-62
2021/11/03 03:58:20;;;;;;;4.75;3.70;;;8.90;99.90;;;;;;5054598;28;20550;-64
2021/11/03 04:00:48;;;;;;;4.70;3.92;;;9.00;99.90;;;;;;5054921;28;20052;-63
2021/11/03 04:03:13;;;;;;;4.80;3.80;;;9.00;99.90;;;;;;5054753;28;20427;-61
2021/11/03 04:05:39;;;;;;;4.60;3.78;;;9.00;99.90;;;;;;5054361;28;20090;-62
2021/11/03 04:08:05;;;;;;;5.35;3.70;;;8.90;99.90;;;;;;5054576;28;20376;-62
2021/11/03 04:10:31;;;;;;;4.32;3.60;;;8.90;99.90;;;;;;5053601;28;20550;-62
2021/11/03 04:12:56;;;;;;;4.05;3.60;;;8.90;99.90;;;;;;5054395;28;20032;-64
2021/11/03 04:15:22;;;;;;;4.00;3.60;;;8.90;99.90;;;;;;5053230;28;20496;-63
2021/11/03 04:17:48;;;;;;;5.65;4.07;;;8.90;99.90;;;;;;5053927;28;20131;-61
2021/11/03 04:20:15;;;;;;;4.35;3.70;;;8.90;99.90;;;;;;5053528;28;20025;-63
2021/11/03 04:22:41;;;;;;;4.65;3.88;;;8.90;99.90;;;;;;5054185;28;20065;-62
2021/11/03 04:25:08;;;;;;;4.70;4.00;;;8.80;99.90;;;;;;5052686;28;20064;-62
2021/11/03 04:27:34;;;;;;;4.55;3.78;;;8.90;99.90;;;;;;5054187;28;20032;-63
2021/11/03 04:30:00;;;;;;;5.65;4.20;;;8.80;99.90;;;;;;5053931;28;20033;-63
2021/11/03 04:32:25;;;;;;;4.78;4.30;;;8.80;99.90;;;;;;5052587;28;20048;-62
2021/11/03 04:34:52;;;;;;;6.53;5.50;;;8.80;99.90;;;;;;5053963;28;20129;-64
2021/11/03 04:37:18;;;;;;;6.03;5.00;;;8.80;99.90;;;;;;5053925;28;20083;-60
2021/11/03 04:39:43;;;;;;;5.95;4.68;;;8.70;99.90;;;;;;5054354;28;20499;-63
2021/11/03 04:42:09;;;;;;;6.53;5.22;;;8.70;99.90;;;;;;5054062;28;20115;-63
2021/11/03 04:44:35;;;;;;;5.53;5.03;;;8.70;99.90;;;;;;5053715;28;20167;-62
2021/11/03 04:47:01;;;;;;;5.13;4.45;;;8.70;99.90;;;;;;5052499;28;20124;-62
2021/11/03 04:49:27;;;;;;;4.88;4.38;;;8.70;99.90;;;;;;5052297;28;20182;-64
2021/11/03 04:51:53;;;;;;;5.15;4.65;;;8.70;99.90;;;;;;5054257;28;20435;-63
2021/11/03 04:54:19;;;;;;;5.53;4.60;;;8.80;99.90;;;;;;5054037;28;20044;-63
2021/11/03 04:56:44;;;;;;;5.05;4.55;;;8.80;99.90;;;;;;5053295;28;20481;-63
2021/11/03 04:59:10;;;;;;;5.35;4.53;;;8.90;99.90;;;;;;5053261;28;20029;-63
2021/11/03 05:01:36;;;;;;;5.70;5.05;;;8.90;99.90;;;;;;5051194;28;20104;-64
2021/11/03 05:04:01;;;;;;;5.75;4.70;;;8.90;99.90;;;;;;5053116;28;20143;-62
2021/11/03 05:06:29;;;;;;;6.25;4.68;;;8.90;99.90;;;;;;5052707;28;20041;-62
2021/11/03 05:08:56;;;;;;;6.55;4.60;;;9.00;99.90;;;;;;5053797;28;20125;-63
2021/11/03 05:11:22;;;;;;;6.55;5.68;;;8.90;99.90;;;;;;5049522;28;20060;-63
2021/11/03 05:13:48;;;;;;;6.28;5.35;;;8.90;99.90;;;;;;5048902;28;20068;-63
2021/11/03 05:16:18;;;;;;;6.05;5.22;;;8.80;99.90;;;;;;5050064;28;20088;-63
2021/11/03 05:18:43;;;;;;;5.70;5.07;;;8.80;99.90;;;;;;5053505;28;20037;-63
2021/11/03 05:21:10;;;;;;;5.28;4.78;;;8.80;99.90;;;;;;5050103;28;20036;-64
2021/11/03 05:23:36;;;;;;;6.78;5.40;;;8.80;99.90;;;;;;5071912;28;20031;-64
2021/11/03 05:26:02;;;;;;;6.32;5.32;;;8.80;99.90;;;;;;5053711;28;20558;-63
2021/11/03 05:28:28;;;;;;;5.88;5.25;;;8.80;99.90;;;;;;5051765;28;20392;-63
2021/11/03 05:30:54;;;;;;;6.57;4.95;;;8.70;99.90;;;;;;5051268;28;20545;-62
2021/11/03 05:33:20;;;;;;;6.25;5.25;;;8.70;99.90;;;;;;5051495;28;20045;-60
2021/11/03 05:35:45;;;;;;;5.80;5.20;;;8.70;99.90;;;;;;5052221;28;20098;-60
2021/11/03 05:38:11;;;;;;;6.55;5.47;;;8.70;99.90;;;;;;5053349;28;20033;-63
2021/11/03 05:40:37;;;;;;;9.05;5.90;;;8.70;99.90;;;;;;5066575;28;20033;-63
2021/11/03 05:43:03;;;;;;;5.97;4.82;;;8.70;99.90;;;;;;5058965;28;20166;-62
2021/11/03 05:45:29;;;;;;;6.03;5.43;;;8.70;99.90;;;;;;5057644;28;20025;-61
2021/11/03 05:47:58;;;;;;;6.25;5.13;;;8.70;99.90;;;;;;5056040;28;20044;-63
2021/11/03 05:50:28;;;;;;;7.85;5.57;;;8.70;99.90;;;;;;5072129;28;20029;-62
2021/11/03 05:52:54;;;;;;;6.00;4.80;;;8.70;99.90;;;;;;5060765;28;20095;-62
2021/11/03 05:55:20;;;;;;;6.22;5.07;;;8.70;99.90;;;;;;5051533;28;20075;-61
2021/11/03 05:57:49;;;;;;;11.30;5.30;;;8.70;99.90;;;;;;5055099;28;20033;-62
2021/11/03 06:00:28;;;;;;;6.57;4.95;;;8.70;99.90;;;;;;5056044;28;20437;-63
2021/11/03 06:02:55;;;;;;;6.60;5.28;;;8.70;99.90;;;;;;5052771;28;20119;-61
2021/11/03 06:05:21;;;;;;;5.40;4.90;;;8.80;99.90;;;;;;5052023;28;20057;-62
2021/11/03 06:07:55;;;;;;;5.40;4.90;;;8.80;99.90;;;;;;5052311;28;20029;-63
2021/11/03 06:10:37;;;;;;;6.13;5.53;;;8.90;99.90;;;;;;5052039;28;20045;-64
2021/11/03 06:13:04;;;;;;;5.40;4.90;;;8.90;99.90;;;;;;5042668;28;20272;-65
2021/11/03 06:15:32;;;;;;;6.30;5.53;;;8.90;99.90;;;;;;5033480;28;20033;-65
2021/11/03 06:17:58;;;;;;;7.32;5.40;;;9.00;99.90;;;;;;5038265;28;20508;-63
2021/11/03 06:20:24;;;;;;;5.57;5.07;;;8.90;99.90;;;;;;5054035;28;20041;-65
2021/11/03 06:22:50;;;;;;;7.15;5.45;;;8.90;99.90;;;;;;5052949;28;20025;-60
2021/11/03 06:25:17;;;;;;;6.45;5.43;;;8.90;99.90;;;;;;5052920;28;20594;-65
2021/11/03 06:27:44;;;;;;;5.95;5.28;;;9.00;99.90;;;;;;5054283;28;20033;-63
2021/11/03 06:30:14;;;;;;;6.68;5.97;;;8.90;99.90;;;;;;5052420;28;20033;-60
2021/11/03 06:32:40;;;;;;;8.93;7.40;;;9.00;99.90;;;;;;5053944;28;20400;-62
2021/11/03 06:35:07;;;;;;;12.02;9.25;;;9.00;99.90;;;;;;5055606;28;20033;-58
2021/11/03 06:37:33;;;;;;;9.30;6.72;;;9.10;99.90;;;;;;5056799;28;20124;-59
2021/11/03 06:39:59;;;;;;;7.50;6.70;;;9.10;99.90;;;;;;5056592;28;20065;-61
2021/11/03 06:42:25;;;;;;;7.68;5.88;;;9.10;99.90;;;;;;5056808;28;20075;-59
2021/11/03 06:44:51;;;;;;;6.40;5.80;;;9.20;99.90;;;;;;5056646;28;20033;-60
2021/11/03 06:47:19;;;;;;;21.73;11.57;;;9.20;99.90;;;;;;5055482;28;20041;-60
2021/11/03 06:49:46;;;;;;;14.00;10.38;;;9.20;99.90;;;;;;5056608;28;20032;-59
2021/11/03 06:52:11;;;;;;;9.40;7.50;;;9.20;99.90;;;;;;5055999;28;20032;-61
2021/11/03 06:54:37;;;;;;;9.23;7.35;;;9.30;99.90;;;;;;5057013;28;20054;-61
2021/11/03 06:57:03;;;;;;;9.38;7.32;;;9.30;99.90;;;;;;5056506;28;20047;-62
2021/11/03 06:59:29;;;;;;;8.45;6.40;;;9.20;99.90;;;;;;5055270;28;20129;-60
2021/11/03 07:01:55;;;;;;;7.55;6.63;;;9.30;99.90;;;;;;5056085;28;20040;-58
2021/11/03 07:04:20;;;;;;;7.82;6.68;;;9.20;99.90;;;;;;5056953;28;20064;-59
2021/11/03 07:06:46;;;;;;;8.32;6.72;;;9.20;99.90;;;;;;5055740;28;20029;-61
2021/11/03 07:09:12;;;;;;;9.02;6.60;;;9.30;99.90;;;;;;5055937;28;20031;-60
2021/11/03 07:11:37;;;;;;;11.35;6.40;;;9.30;99.90;;;;;;5056196;28;20121;-60
2021/11/03 07:14:04;;;;;;;8.27;6.60;;;9.40;99.90;;;;;;5057006;28;20033;-63
2021/11/03 07:16:29;;;;;;;7.43;6.07;;;9.40;99.90;;;;;;5056047;28;20033;-59
2021/11/03 07:18:55;;;;;;;9.85;6.88;;;9.40;99.90;;;;;;5069654;28;20025;-60
2021/11/03 07:21:20;;;;;;;6.57;5.88;;;9.40;99.90;;;;;;5066692;28;20503;-58
2021/11/03 07:23:46;;;;;;;7.53;6.28;;;9.40;99.90;;;;;;5054476;28;20033;-59
2021/11/03 07:26:13;;;;;;;6.80;6.10;;;9.40;99.90;;;;;;5056041;28;20041;-60
2021/11/03 07:28:39;;;;;;;8.60;7.47;;;9.40;99.90;;;;;;5055960;28;20037;-58
2021/11/03 07:31:06;;;;;;;7.70;6.82;;;9.50;99.80;;;;;;5055250;28;20043;-61
2021/11/03 07:33:32;;;;;;;8.52;6.32;;;9.50;99.80;;;;;;5056097;28;20090;-59
2021/11/03 07:36:01;;;;;;;9.38;7.05;;;9.60;99.70;;;;;;5055596;28;20025;-60
2021/11/03 07:38:27;;;;;;;9.50;6.55;;;9.60;99.70;;;;;;5055870;28;20484;-57
2021/11/03 07:40:55;;;;;;;7.65;6.35;;;9.70;99.60;;;;;;5055159;28;20033;-60
2021/11/03 07:43:23;;;;;;;9.10;6.57;;;9.80;99.40;;;;;;5056117;28;20028;-59
2021/11/03 07:45:51;;;;;;;18.38;9.05;;;9.80;99.60;;;;;;5055427;28;20041;-60
2021/11/03 07:48:17;;;;;;;11.90;8.40;;;9.90;99.10;;;;;;5054599;28;20041;-59
2021/11/03 07:50:48;;;;;;;9.25;7.45;;;9.90;98.90;;;;;;5054777;28;20052;-60
2021/11/03 07:53:15;;;;;;;8.20;6.47;;;9.90;98.90;;;;;;5055536;28;20111;-62
2021/11/03 07:55:43;;;;;;;8.05;6.65;;;10.00;98.90;;;;;;5055277;28;20040;-60
2021/11/03 07:58:16;;;;;;;8.75;6.55;;;10.10;98.80;;;;;;5055045;28;20029;-59
2021/11/03 08:00:42;;;;;;;11.63;7.15;;;10.10;98.70;;;;;;5054803;28;20025;-60
2021/11/03 08:03:08;;;;;;;10.18;5.93;;;10.10;98.60;;;;;;5054570;28;20036;-61
2021/11/03 08:05:34;;;;;;;8.88;5.50;;;10.20;98.60;;;;;;5055340;28;20166;-60
2021/11/03 08:08:08;;;;;;;7.07;5.65;;;10.20;98.50;;;;;;5055645;28;20033;-60
2021/11/03 08:10:34;;;;;;;7.40;5.93;;;10.30;98.80;;;;;;5055355;28;20120;-61
2021/11/03 08:13:00;;;;;;;6.80;6.10;;;10.50;99.20;;;;;;5055175;28;20082;-62
2021/11/03 08:15:26;;;;;;;7.43;5.97;;;10.50;99.30;;;;;;5053983;28;20435;-61
2021/11/03 08:17:55;;;;;;;6.55;5.82;;;10.70;99.20;;;;;;5058901;28;20044;-60
2021/11/03 08:20:24;;;;;;;8.70;6.30;;;10.80;99.00;;;;;;5074324;28;20484;-60
2021/11/03 08:22:50;;;;;;;7.10;6.40;;;11.00;98.90;;;;;;5034652;28;20034;-61
2021/11/03 08:25:16;;;;;;;7.30;6.10;;;11.00;98.50;;;;;;5033394;28;20397;-60
2021/11/03 08:27:41;;;;;;;6.88;5.70;;;11.00;98.10;;;;;;5035531;28;20520;-60
2021/11/03 08:30:11;;;;;;;10.48;6.68;;;11.00;98.10;;;;;;5035409;28;20053;-63
2021/11/03 08:32:46;;;;;;;6.13;5.63;;;11.10;98.00;;;;;;5034631;28;20099;-59
2021/11/03 08:35:14;;;;;;;8.77;6.95;;;11.00;97.50;;;;;;5034849;28;20489;-61
2021/11/03 08:37:40;;;;;;;6.70;5.85;;;11.10;97.50;;;;;;5034565;28;20037;-60
2021/11/03 08:40:10;;;;;;;8.93;6.45;;;11.10;97.40;;;;;;5034209;28;20026;-60
2021/11/03 08:42:36;;;;;;;7.60;6.03;;;11.20;97.30;;;;;;5034961;28;20037;-59
2021/11/03 08:45:04;;;;;;;7.13;6.40;;;11.20;97.40;;;;;;5034405;28;20076;-61
2021/11/03 08:47:29;;;;;;;6.95;6.32;;;11.30;96.70;;;;;;5034943;28;20052;-60
2021/11/03 08:49:55;;;;;;;12.38;10.32;;;11.20;96.70;;;;;;5034486;28;20033;-57
2021/11/03 08:52:20;;;;;;;10.75;8.90;;;11.30;96.90;;;;;;5034885;28;20096;-60
2021/11/03 08:54:49;;;;;;;9.98;8.45;;;11.40;96.90;;;;;;5037453;28;20029;-58
2021/11/03 08:57:16;;;;;;;11.90;9.95;;;11.50;96.80;;;;;;5052933;28;20116;-61
2021/11/03 08:59:42;;;;;;;14.80;10.95;;;11.70;96.50;;;;;;5054316;28;20025;-60
2021/11/03 09:02:08;;;;;;;16.17;9.48;;;11.70;96.30;;;;;;5054764;28;20040;-60
2021/11/03 09:04:34;;;;;;;8.88;7.93;;;11.80;95.70;;;;;;5055089;28;20058;-60
2021/11/03 09:07:00;;;;;;;9.00;6.82;;;11.90;95.70;;;;;;5053953;28;20032;-60
2021/11/03 09:09:26;;;;;;;8.02;6.85;;;12.00;95.50;;;;;;5054023;28;20086;-60
2021/11/03 09:11:52;;;;;;;10.00;7.20;;;12.10;95.20;;;;;;5054009;28;20037;-59
2021/11/03 09:14:21;;;;;;;10.52;6.40;;;12.10;95.10;;;;;;5054790;28;20388;-61
2021/11/03 09:16:51;;;;;;;6.55;5.13;;;12.20;95.00;;;;;;5056655;28;20033;-62
2021/11/03 09:19:18;;;;;;;6.50;5.60;;;12.10;94.60;;;;;;5073201;28;20499;-60
2021/11/03 09:21:44;;;;;;;9.80;7.05;;;12.10;94.10;;;;;;5063527;28;20037;-61
2021/11/03 09:24:10;;;;;;;7.43;5.72;;;12.00;94.10;;;;;;5053783;28;20021;-61
2021/11/03 09:26:35;;;;;;;6.50;5.90;;;11.80;94.10;;;;;;5053627;28;20059;-58
2021/11/03 09:29:03;;;;;;;10.68;5.75;;;11.80;94.40;;;;;;5053660;28;20045;-60
2021/11/03 09:31:29;;;;;;;6.85;5.82;;;11.80;94.50;;;;;;5053228;28;20046;-57
2021/11/03 09:33:55;;;;;;;6.03;5.43;;;11.70;94.30;;;;;;5054564;28;20542;-61
2021/11/03 09:36:21;;;;;;;7.53;6.53;;;11.60;94.40;;;;;;5051938;28;20032;-60
2021/11/03 09:38:49;;;;;;;11.00;6.22;;;11.60;94.50;;;;;;5052013;28;20040;-60
2021/11/03 09:41:27;;;;;;;8.18;6.13;;;11.60;94.60;;;;;;5053210;28;20086;-61
2021/11/03 09:43:55;;;;;;;7.13;5.85;;;11.50;94.50;;;;;;5053277;28;20029;-61
2021/11/03 09:46:29;;;;;;;6.95;5.93;;;11.60;94.80;;;;;;5053269;28;20033;-59
2021/11/03 09:49:04;;;;;;;6.10;5.50;;;11.70;94.60;;;;;;5053011;28;20029;-60
2021/11/03 09:51:31;;;;;;;7.10;6.30;;;11.70;94.30;;;;;;5052896;28;20059;-59
2021/11/03 09:53:59;;;;;;;6.22;5.63;;;11.70;94.30;;;;;;5052981;28;20035;-60
2021/11/03 09:56:39;;;;;;;7.40;5.78;;;11.90;94.30;;;;;;5053025;28;20033;-59
2021/11/03 09:59:26;;;;;;;7.40;5.50;;;11.90;94.10;;;;;;5053377;28;20388;-61
2021/11/03 10:02:17;;;;;;;6.75;5.60;;;12.00;93.90;;;;;;5052856;28;20044;-61
2021/11/03 10:05:04;;;;;;;5.30;4.80;;;12.00;93.90;;;;;;5053219;28;20033;-57
2021/11/03 10:07:52;;;;;;;8.02;5.70;;;12.10;93.70;;;;;;5052977;28;20029;-62
2021/11/03 10:10:34;;;;;;;6.80;5.80;;;11.90;93.70;;;;;;5052524;28;20044;-61
2021/11/03 10:13:03;;;;;;;6.65;5.00;;;11.80;94.10;;;;;;5052758;28;20048;-62
2021/11/03 10:15:29;;;;;;;6.50;5.35;;;11.80;94.20;;;;;;5053131;28;20055;-58
2021/11/03 10:18:18;;;;;;;6.15;5.40;;;12.00;94.20;;;;;;5058304;28;20143;-61
2021/11/03 10:21:06;;;;;;;12.57;6.57;;;12.10;94.10;;;;;;5070188;28;20020;-59
2021/11/03 10:23:34;;;;;;;8.90;7.00;;;12.30;93.80;;;;;;5048986;28;20040;-60
2021/11/03 10:26:09;;;;;;;7.50;6.80;;;12.20;93.80;;;;;;5052979;28;20029;-59
2021/11/03 10:28:42;;;;;;;11.48;7.10;;;12.10;93.90;;;;;;5053225;28;20116;-61
2021/11/03 10:31:32;;;;;;;7.60;6.40;;;12.00;94.30;;;;;;5052601;28;20083;-59
2021/11/03 10:34:17;;;;;;;7.72;6.88;;;11.90;94.60;;;;;;5053409;28;20446;-61
2021/11/03 10:36:45;;;;;;;9.45;6.95;;;12.00;94.60;;;;;;5052522;28;20497;-61
2021/11/03 10:39:19;;;;;;;6.35;5.75;;;12.10;94.60;;;;;;5052821;28;20047;-60
2021/11/03 10:42:01;;;;;;;7.28;5.70;;;12.10;94.50;;;;;;5052368;28;20112;-59
2021/11/03 10:44:29;;;;;;;6.43;5.68;;;12.20;94.30;;;;;;5053090;28;20033;-62
2021/11/03 10:46:58;;;;;;;7.43;5.60;;;12.20;94.20;;;;;;5053171;28;20068;-59
2021/11/03 10:49:46;;;;;;;6.47;5.82;;;12.50;94.10;;;;;;5053238;28;20041;-60
2021/11/03 10:52:39;;;;;;;5.78;5.18;;;12.70;93.60;;;;;;5052989;28;20037;-61
2021/11/03 10:55:37;;;;;;;5.70;5.10;;;12.90;93.40;;;;;;5053271;28;20036;-61
2021/11/03 10:58:18;;;;;;;7.90;5.28;;;13.00;93.20;;;;;;4999887;28;20052;-60
2021/11/03 11:01:00;;;;;;;7.93;6.22;;;12.90;92.50;;;;;;5053204;28;20068;-60
2021/11/03 11:03:30;;;;;;;6.05;5.35;;;13.00;92.90;;;;;;5053204;28;20033;-60
2021/11/03 11:06:23;;;;;;;6.45;5.70;;;13.10;92.90;;;;;;5052777;28;20040;-60
2021/11/03 11:09:28;;;;;;;6.80;6.10;;;13.30;92.60;;;;;;5051944;28;20416;-59
2021/11/03 11:12:02;;;;;;;6.82;5.88;;;13.30;92.30;;;;;;5052633;28;20082;-57
2021/11/03 11:14:31;;;;;;;6.70;6.07;;;13.30;92.60;;;;;;5052060;28;20033;-58
2021/11/03 11:17:34;;;;;;;5.82;5.30;;;13.20;92.80;;;;;;5052160;28;20464;-61
2021/11/03 11:20:26;;;;;;;7.72;6.07;;;13.10;92.90;;;;;;5033993;28;20104;-60
2021/11/03 11:23:23;;;;;;;5.85;5.35;;;13.10;93.00;;;;;;5036008;28;20149;-61
2021/11/03 11:26:12;;;;;;;7.75;5.95;;;13.30;92.70;;;;;;5036516;28;20034;-58
2021/11/03 11:29:23;;;;;;;13.00;6.40;;;13.20;92.30;;;;;;5036169;28;20033;-60
2021/11/03 11:32:12;;;;;;;6.90;5.93;;;13.10;92.20;;;;;;5035876;28;20496;-61
2021/11/03 11:35:09;;;;;;;6.38;4.90;;;13.00;92.20;;;;;;5035851;28;20044;-58
2021/11/03 11:38:09;;;;;;;8.48;4.78;;;12.90;91.80;;;;;;5036889;28;20484;-61
2021/11/03 11:40:55;;;;;;;6.90;4.35;;;12.70;92.10;;;;;;5035498;28;20416;-61
2021/11/03 11:43:45;;;;;;;5.78;4.43;;;12.60;92.30;;;;;;5036576;28;20029;-60
2021/11/03 11:46:22;;;;;;;5.40;4.90;;;12.50;92.60;;;;;;5036108;28;20022;-62
2021/11/03 11:48:57;;;;;;;5.03;4.43;;;12.60;92.70;;;;;;5034618;28;20124;-60
2021/11/03 11:51:25;;;;;;;7.05;4.55;;;12.60;92.60;;;;;;5035490;28;20037;-63
2021/11/03 11:53:51;;;;;;;4.90;4.40;;;12.60;92.60;;;;;;5036071;28;20141;-65
2021/11/03 11:56:27;;;;;;;5.85;4.30;;;12.70;92.60;;;;;;5051155;28;20021;-61
2021/11/03 11:59:06;;;;;;;5.07;4.57;;;12.80;92.60;;;;;;5055967;28;20059;-63
2021/11/03 12:01:42;;;;;;;6.72;5.32;;;12.70;92.40;;;;;;5055927;28;20037;-61
2021/11/03 12:04:07;;;;;;;5.00;4.50;;;12.60;92.50;;;;;;5055988;28;20033;-61
2021/11/03 12:06:51;;;;;;;5.40;4.45;;;12.60;92.40;;;;;;5055857;28;20384;-60
2021/11/03 12:09:22;;;;;;;6.82;4.75;;;12.60;92.50;;;;;;5055486;28;20055;-62
2021/11/03 12:11:57;;;;;;;5.35;4.80;;;12.50;92.30;;;;;;5055119;28;20037;-61
2021/11/03 12:14:49;;;;;;;5.72;5.10;;;12.50;92.60;;;;;;5056104;28;20041;-63
2021/11/03 12:17:18;;;;;;;6.80;4.78;;;12.50;92.60;;;;;;5049290;28;20037;-59
2021/11/03 12:19:49;;;;;;;4.85;4.38;;;12.50;92.60;;;;;;5034339;28;20091;-59
2021/11/03 12:22:30;;;;;;;6.55;4.68;;;12.50;92.70;;;;;;5050260;28;20029;-59
2021/11/03 12:25:19;;;;;;;5.90;4.35;;;12.60;92.60;;;;;;5054369;28;20036;-59
2021/11/03 12:27:50;;;;;;;7.70;4.30;;;12.60;92.70;;;;;;5057589;28;20090;-62
2021/11/03 12:30:18;;;;;;;9.80;5.03;;;12.60;92.40;;;;;;5054232;28;20505;-60
2021/11/03 12:32:43;;;;;;;6.55;4.90;;;12.60;92.20;;;;;;5054928;28;20503;-60
2021/11/03 12:35:18;;;;;;;6.88;5.10;;;12.50;92.40;;;;;;5055072;28;20032;-61
2021/11/03 12:37:46;;;;;;;5.00;4.50;;;12.50;92.40;;;;;;5054851;28;20036;-60
2021/11/03 12:40:35;;;;;;;5.43;4.20;;;12.50;92.40;;;;;;5054418;28;20485;-61
2021/11/03 12:43:18;;;;;;;6.00;4.78;;;12.50;92.40;;;;;;5054927;28;20033;-62
2021/11/03 12:45:59;;;;;;;9.48;4.80;;;12.50;92.40;;;;;;5054764;28;20052;-61
2021/11/03 12:48:29;;;;;;;7.63;4.40;;;12.50;92.40;;;;;;5054086;28;20025;-61
2021/11/03 12:50:54;;;;;;;5.93;5.07;;;12.60;92.50;;;;;;5068999;28;20104;-62
2021/11/03 12:53:25;;;;;;;6.05;4.47;;;12.50;92.50;;;;;;5055539;28;20071;-59
2021/11/03 12:55:59;;;;;;;5.60;4.93;;;12.50;92.70;;;;;;5054257;28;20033;-60
2021/11/03 12:58:28;;;;;;;6.80;5.50;;;12.50;92.70;;;;;;5054061;28;20514;-61
2021/11/03 13:00:54;;;;;;;5.72;5.13;;;12.60;92.60;;;;;;5053551;28;20080;-61
2021/11/03 13:03:28;;;;;;;6.25;4.90;;;12.60;92.60;;;;;;5054387;28;20379;-60
2021/11/03 13:05:55;;;;;;;8.02;5.50;;;12.60;92.60;;;;;;5054902;28;20021;-60
2021/11/03 13:08:27;;;;;;;6.78;4.90;;;12.60;92.60;;;;;;5053364;28;20033;-59